Rechercher aéroport 
image banner adimage banner ad
image banner ad

LIED - Decimomannu

Situé à Decimomannu, Italy

ICAO - LIED, IATA - DCI

Données fournies par Airmate  

Information générale

Coordonnées: N39°21'14" E8°58'18"
Élévation : 100 feet MSL.
 
Voir autres Aéroports à Sardinia

Données opérationnelles

Accessible au public
Heure actuelle UTC:
Heure actuelle locale:
Météo
METAR: LIED 261055Z 31024KT 9999 FEW020 SCT040 20/09 Q1008 RMK BKN VIS MIN 9999 WIND THR35 31021KT WIND THR17 32025KT BLU
TAF: TAF LIED 260800Z 2609/2618 32020G30KT 9999 FEW020 SCT030 TEMPO 2610/2614 32025G40KT
Voir NOTAMs / SUP AIP / TFR affectant cet aéroport [VIEW]
Fréquences de communication: [VIEW]

Pistes:

Identifiant RWYQFULongueur (ft)Largeur (ft)SurfaceLDA (ft)
179809147ASPH
359809147ASPH
17A807498ASPH
35A807498ASPH
17L00UNK
35R00UNK
17R00UNK
35L00UNK

Coordonnées de l'aéroport

Adresse: Decimomannu Italy

Vue satellite de LIED